Colbrook, Connecticut
Current Conditions -  °F | °C
As of 2:53 AM on Saturday 20 Dec 2014 (Local Time) from KBAF Reporting Station
Clear Clear  
Wind Chill: -9°   Ceiling: Unl
Heat Index: -6°   Visibility: 10mi
Dew Point: -7°   Wind: 5mph
Humidity: 89%   Direction: 10°N
Pressure: 30.19"   Gusts: NA
Location:  42.0286°N, 73.1037°W
Report Text: KBAF 200753Z AUTO 01004KT 10SM CLR M06/M07 A3019 RMK AO2 SLP232 T10561072
Loading
Personal Weather Stations






























Interactive Weather Map New forecast layout! Learn more

10-Day Weather Forecast

Advertisements
Track Severe Weather on mobile